createdAt,value
2019-05-20T00:02:00.000Z,97426
2019-05-20T00:07:00.000Z,97415
2019-05-20T00:12:00.000Z,97400
2019-05-20T00:17:00.000Z,97393
2019-05-20T00:22:00.000Z,97392
2019-05-20T00:27:00.000Z,97394
2019-05-20T00:32:00.000Z,97383
2019-05-20T00:37:00.000Z,97385
2019-05-20T00:42:00.000Z,97395
2019-05-20T00:47:00.000Z,97392
2019-05-20T00:52:00.000Z,97401
2019-05-20T00:57:00.000Z,97382
2019-05-20T01:02:00.000Z,97379
2019-05-20T01:07:00.000Z,97370
2019-05-20T01:12:00.000Z,97375
2019-05-20T01:17:00.000Z,97368
2019-05-20T01:23:00.000Z,97360
2019-05-20T01:28:00.000Z,97368
2019-05-20T01:33:00.000Z,97363
2019-05-20T01:38:00.000Z,97361
2019-05-20T01:43:00.000Z,97354
2019-05-20T01:48:00.000Z,97345
2019-05-20T01:53:00.000Z,97332
2019-05-20T02:03:00.000Z,97330
2019-05-20T02:08:00.000Z,97339
2019-05-20T02:13:00.000Z,97323
2019-05-20T02:19:00.000Z,97318
2019-05-20T02:24:00.000Z,97320
2019-05-20T02:29:00.000Z,97321
2019-05-20T02:34:00.000Z,97315
2019-05-20T02:39:00.000Z,97324
2019-05-20T02:44:00.000Z,97320
2019-05-20T02:49:00.000Z,97324
2019-05-20T02:54:00.000Z,97328
2019-05-20T02:59:00.000Z,97320
2019-05-20T03:04:00.000Z,97321
2019-05-20T03:09:00.000Z,97328
2019-05-20T03:14:00.000Z,97335
2019-05-20T03:19:00.000Z,97336
2019-05-20T03:24:00.000Z,97336
2019-05-20T03:29:00.000Z,97335
2019-05-20T03:34:00.000Z,97327
2019-05-20T03:39:00.000Z,97331
2019-05-20T03:44:00.000Z,97331
2019-05-20T03:49:00.000Z,97342
2019-05-20T03:54:00.000Z,97330
2019-05-20T03:59:00.000Z,97332
2019-05-20T04:04:00.000Z,97336
2019-05-20T04:10:00.000Z,97331
2019-05-20T04:15:00.000Z,97332
2019-05-20T04:20:00.000Z,97336
2019-05-20T04:25:00.000Z,97338
2019-05-20T04:30:00.000Z,97338
2019-05-20T04:35:00.000Z,97344
2019-05-20T04:40:00.000Z,97350
2019-05-20T04:45:00.000Z,97354
2019-05-20T04:50:00.000Z,97351
2019-05-20T04:55:00.000Z,97343
2019-05-20T05:00:00.000Z,97354
2019-05-20T05:05:00.000Z,97350
2019-05-20T05:10:00.000Z,97346
2019-05-20T05:15:00.000Z,97348
2019-05-20T05:20:00.000Z,97352
2019-05-20T05:25:00.000Z,97351
2019-05-20T05:30:00.000Z,97358
2019-05-20T05:35:00.000Z,97367
2019-05-20T05:40:00.000Z,97378
2019-05-20T05:45:00.000Z,97372
2019-05-20T05:50:00.000Z,97375
2019-05-20T05:55:00.000Z,97377
2019-05-20T06:00:00.000Z,97371
2019-05-20T06:05:00.000Z,97376
2019-05-20T06:11:00.000Z,97369
2019-05-20T06:16:00.000Z,97374
2019-05-20T06:21:00.000Z,97373
2019-05-20T06:26:00.000Z,97369
2019-05-20T06:31:00.000Z,97381
2019-05-20T06:36:00.000Z,97380
2019-05-20T06:41:00.000Z,97382
2019-05-20T06:46:00.000Z,97382
2019-05-20T06:51:00.000Z,97380
2019-05-20T06:56:00.000Z,97388
2019-05-20T07:01:00.000Z,97394
2019-05-20T07:06:00.000Z,97395
2019-05-20T07:11:00.000Z,97392
2019-05-20T07:16:00.000Z,97402
2019-05-20T07:21:00.000Z,97400
2019-05-20T07:26:00.000Z,97401
2019-05-20T07:31:00.000Z,97411
2019-05-20T07:36:00.000Z,97410
2019-05-20T07:42:00.000Z,97417
2019-05-20T07:47:00.000Z,97408
2019-05-20T07:52:00.000Z,97417
2019-05-20T07:57:00.000Z,97421
2019-05-20T08:02:00.000Z,97427
2019-05-20T08:07:00.000Z,97430
2019-05-20T08:12:00.000Z,97417
2019-05-20T08:17:00.000Z,97426
2019-05-20T08:22:00.000Z,97419
2019-05-20T08:27:00.000Z,97418
2019-05-20T08:32:00.000Z,97426
2019-05-20T08:37:00.000Z,97429
2019-05-20T08:42:00.000Z,97434
2019-05-20T08:47:00.000Z,97428
2019-05-20T08:52:00.000Z,97434
2019-05-20T08:57:00.000Z,97438
2019-05-20T09:02:00.000Z,97446
2019-05-20T09:07:00.000Z,97436
2019-05-20T09:13:00.000Z,97434
2019-05-20T09:18:00.000Z,97430
2019-05-20T09:23:00.000Z,97429
2019-05-20T09:28:00.000Z,97447
2019-05-20T09:33:00.000Z,97437
2019-05-20T09:38:00.000Z,97437
2019-05-20T09:43:00.000Z,97436
2019-05-20T09:48:00.000Z,97430
2019-05-20T09:53:00.000Z,97437
2019-05-20T09:58:00.000Z,97432
2019-05-20T10:03:00.000Z,97419
2019-05-20T10:08:00.000Z,97427
2019-05-20T10:13:00.000Z,97430
2019-05-20T10:18:00.000Z,97441
2019-05-20T10:23:00.000Z,97434
2019-05-20T10:28:00.000Z,97429
2019-05-20T10:33:00.000Z,97434
2019-05-20T10:38:00.000Z,97442
2019-05-20T10:43:00.000Z,97427
2019-05-20T10:49:00.000Z,97436
2019-05-20T10:54:00.000Z,97443
2019-05-20T10:59:00.000Z,97447
2019-05-20T11:04:00.000Z,97449
2019-05-20T11:09:00.000Z,97448
2019-05-20T11:14:00.000Z,97455
2019-05-20T11:19:00.000Z,97438
2019-05-20T11:24:00.000Z,97441
2019-05-20T11:29:00.000Z,97426
2019-05-20T11:34:00.000Z,97434
2019-05-20T11:39:00.000Z,97438
2019-05-20T11:44:00.000Z,97431
2019-05-20T11:49:00.000Z,97422
2019-05-20T11:54:00.000Z,97421
2019-05-20T11:59:00.000Z,97409
2019-05-20T12:04:00.000Z,97414
2019-05-20T12:09:00.000Z,97416
2019-05-20T12:14:00.000Z,97422
2019-05-20T12:19:00.000Z,97419
2019-05-20T12:24:00.000Z,97429
2019-05-20T12:29:00.000Z,97435
2019-05-20T12:34:00.000Z,97438
2019-05-20T12:39:00.000Z,97429
2019-05-20T12:45:00.000Z,97435
2019-05-20T12:50:00.000Z,97441
2019-05-20T12:55:00.000Z,97430
2019-05-20T13:00:00.000Z,97427
2019-05-20T13:05:00.000Z,97422
2019-05-20T13:10:00.000Z,97434
2019-05-20T13:15:00.000Z,97425
2019-05-20T13:20:00.000Z,97429
2019-05-20T13:25:00.000Z,97431
2019-05-20T13:30:00.000Z,97447
2019-05-20T13:35:00.000Z,97447
2019-05-20T13:40:00.000Z,97432
2019-05-20T13:45:00.000Z,97430
2019-05-20T13:50:00.000Z,97436
2019-05-20T13:55:00.000Z,97441
2019-05-20T14:00:00.000Z,97434
2019-05-20T14:05:00.000Z,97418
2019-05-20T14:10:00.000Z,97414
2019-05-20T14:16:00.000Z,97413
2019-05-20T14:21:00.000Z,97407
2019-05-20T14:26:00.000Z,97414
2019-05-20T14:31:00.000Z,97433
2019-05-20T14:36:00.000Z,97441
2019-05-20T14:41:00.000Z,97448
2019-05-20T14:46:00.000Z,97447
2019-05-20T14:51:00.000Z,97443
2019-05-20T14:56:00.000Z,97443
2019-05-20T15:01:00.000Z,97451
2019-05-20T15:06:00.000Z,97452
2019-05-20T15:11:00.000Z,97442
2019-05-20T15:16:00.000Z,97445
2019-05-20T15:21:00.000Z,97443
2019-05-20T15:26:00.000Z,97442
2019-05-20T15:31:00.000Z,97432
2019-05-20T15:36:00.000Z,97421
2019-05-20T15:41:00.000Z,97421
2019-05-20T15:46:00.000Z,97414
2019-05-20T15:51:00.000Z,97404
2019-05-20T15:56:00.000Z,97419
2019-05-20T16:01:00.000Z,97407
2019-05-20T16:06:00.000Z,97400
2019-05-20T16:11:00.000Z,97390
2019-05-20T16:16:00.000Z,97389
2019-05-20T16:21:00.000Z,97387
2019-05-20T16:26:00.000Z,97387
2019-05-20T16:31:00.000Z,97386
2019-05-20T16:36:00.000Z,97385
2019-05-20T16:41:00.000Z,97385
2019-05-20T16:46:00.000Z,97378
2019-05-20T16:51:00.000Z,97375
2019-05-20T16:56:00.000Z,97381
2019-05-20T17:01:00.000Z,97383
2019-05-20T17:06:00.000Z,97387
2019-05-20T17:11:00.000Z,97380
2019-05-20T17:16:00.000Z,97380
2019-05-20T17:21:00.000Z,97386
2019-05-20T17:27:00.000Z,97384
2019-05-20T17:32:00.000Z,97386
2019-05-20T17:37:00.000Z,97387
2019-05-20T17:42:00.000Z,97397
2019-05-20T17:47:00.000Z,97393
2019-05-20T17:52:00.000Z,97401
2019-05-20T17:57:00.000Z,97404
2019-05-20T18:02:00.000Z,97397
2019-05-20T18:07:00.000Z,97400
2019-05-20T18:12:00.000Z,97403
2019-05-20T18:17:00.000Z,97399
2019-05-20T18:22:00.000Z,97410
2019-05-20T18:27:00.000Z,97405
2019-05-20T18:32:00.000Z,97412
2019-05-20T18:37:00.000Z,97402
2019-05-20T18:42:00.000Z,97411
2019-05-20T18:47:00.000Z,97422
2019-05-20T18:52:00.000Z,97423
2019-05-20T18:57:00.000Z,97438
2019-05-20T19:02:00.000Z,97435
2019-05-20T19:07:00.000Z,97437
2019-05-20T19:12:00.000Z,97438
2019-05-20T19:17:00.000Z,97453
2019-05-20T19:22:00.000Z,97456
2019-05-20T19:27:00.000Z,97455
2019-05-20T19:32:00.000Z,97462
2019-05-20T19:37:00.000Z,97473
2019-05-20T19:42:00.000Z,97462
2019-05-20T19:47:00.000Z,97479
2019-05-20T19:52:00.000Z,97488
2019-05-20T19:57:00.000Z,97489
2019-05-20T20:02:00.000Z,97478
2019-05-20T20:07:00.000Z,97491
2019-05-20T20:12:00.000Z,97498
2019-05-20T20:17:00.000Z,97483
2019-05-20T20:22:00.000Z,97484
2019-05-20T20:27:00.000Z,97496
2019-05-20T20:32:00.000Z,97503
2019-05-20T20:37:00.000Z,97506
2019-05-20T20:42:00.000Z,97508
2019-05-20T20:47:00.000Z,97514
2019-05-20T20:52:00.000Z,97506
2019-05-20T20:57:00.000Z,97510
2019-05-20T21:02:00.000Z,97506
2019-05-20T21:07:00.000Z,97515
2019-05-20T21:12:00.000Z,97526
2019-05-20T21:17:00.000Z,97528
2019-05-20T21:22:00.000Z,97516
2019-05-20T21:27:00.000Z,97519
2019-05-20T21:32:00.000Z,97516
2019-05-20T21:38:00.000Z,97515
2019-05-20T21:43:00.000Z,97505
2019-05-20T21:48:00.000Z,97515
2019-05-20T21:53:00.000Z,97501
2019-05-20T21:58:00.000Z,97484
2019-05-20T22:03:00.000Z,97474
2019-05-20T22:08:00.000Z,97467
2019-05-20T22:13:00.000Z,97473
2019-05-20T22:18:00.000Z,97482
2019-05-20T22:23:00.000Z,97485
2019-05-20T22:28:00.000Z,97500
2019-05-20T22:33:00.000Z,97482
2019-05-20T22:38:00.000Z,97480
2019-05-20T22:43:00.000Z,97481
2019-05-20T22:48:00.000Z,97472
2019-05-20T22:53:00.000Z,97477
2019-05-20T22:58:00.000Z,97470
2019-05-20T23:03:00.000Z,97440
2019-05-20T23:08:00.000Z,97447
2019-05-20T23:13:00.000Z,97458
2019-05-20T23:18:00.000Z,97469
2019-05-20T23:23:00.000Z,97473
2019-05-20T23:29:00.000Z,97472
2019-05-20T23:34:00.000Z,97472
2019-05-20T23:39:00.000Z,97479
2019-05-20T23:44:00.000Z,97482
2019-05-20T23:49:00.000Z,97475
2019-05-20T23:54:00.000Z,97468
2019-05-20T23:59:00.000Z,97481
